createdAt,value
2019-02-24T00:01:28.987Z,35.40
2019-02-24T00:03:56.055Z,35.40
2019-02-24T00:06:22.468Z,35.40
2019-02-24T00:08:50.330Z,35.40
2019-02-24T00:11:16.572Z,35.30
2019-02-24T00:13:42.976Z,35.30
2019-02-24T00:16:09.253Z,35.30
2019-02-24T00:18:35.893Z,35.20
2019-02-24T00:21:03.108Z,35.20
2019-02-24T00:23:30.163Z,35.20
2019-02-24T00:25:56.367Z,35.20
2019-02-24T00:28:22.622Z,35.10
2019-02-24T00:30:49.065Z,35.10
2019-02-24T00:33:15.515Z,35.10
2019-02-24T00:35:42.749Z,35.10
2019-02-24T00:38:08.992Z,35.10
2019-02-24T00:40:35.400Z,35.00
2019-02-24T00:43:01.600Z,34.90
2019-02-24T00:45:27.850Z,34.90
2019-02-24T00:47:54.293Z,34.90
2019-02-24T00:50:20.523Z,34.80
2019-02-24T00:52:46.944Z,34.70
2019-02-24T00:55:13.173Z,34.80
2019-02-24T00:57:39.407Z,34.70
2019-02-24T01:00:05.867Z,34.70
2019-02-24T01:02:32.254Z,34.60
2019-02-24T01:04:58.507Z,34.60
2019-02-24T01:07:24.712Z,34.60
2019-02-24T01:09:50.990Z,34.60
2019-02-24T01:12:17.428Z,34.50
2019-02-24T01:14:43.810Z,34.50
2019-02-24T01:17:11.694Z,34.60
2019-02-24T01:19:37.921Z,34.50
2019-02-24T01:22:04.144Z,34.60
2019-02-24T01:24:30.370Z,34.60
2019-02-24T01:26:57.470Z,34.50
2019-02-24T01:29:23.856Z,34.50
2019-02-24T01:31:50.091Z,34.50
2019-02-24T01:34:16.280Z,34.50
2019-02-24T01:36:42.780Z,34.40
2019-02-24T01:39:09.179Z,34.30
2019-02-24T01:41:35.399Z,34.30
2019-02-24T01:44:01.677Z,34.30
2019-02-24T01:46:28.048Z,34.40
2019-02-24T01:48:54.370Z,34.20
2019-02-24T01:51:20.719Z,34.30
2019-02-24T01:53:46.990Z,34.20
2019-02-24T01:56:13.399Z,34.20
2019-02-24T01:58:40.436Z,34.20
2019-02-24T02:01:06.659Z,34.20
2019-02-24T02:03:34.543Z,34.30
2019-02-24T02:06:00.755Z,34.20
2019-02-24T02:08:27.028Z,34.20
2019-02-24T02:10:53.440Z,34.20
2019-02-24T02:13:19.850Z,34.10
2019-02-24T02:15:46.325Z,34.00
2019-02-24T02:18:12.732Z,34.00
2019-02-24T02:20:39.207Z,33.90
2019-02-24T02:23:05.567Z,34.00
2019-02-24T02:25:31.811Z,34.00
2019-02-24T02:27:58.287Z,33.80
2019-02-24T02:30:24.687Z,33.80
2019-02-24T02:32:50.899Z,33.90
2019-02-24T02:35:17.145Z,33.80
2019-02-24T02:37:43.565Z,33.70
2019-02-24T02:40:09.840Z,33.80
2019-02-24T02:42:36.081Z,33.70
2019-02-24T02:45:02.462Z,33.70
2019-02-24T02:47:28.699Z,33.60
2019-02-24T02:49:55.142Z,33.70
2019-02-24T02:52:21.568Z,33.70
2019-02-24T02:54:47.974Z,33.60
2019-02-24T02:57:14.226Z,33.50
2019-02-24T02:59:40.655Z,33.50
2019-02-24T03:02:06.872Z,33.50
2019-02-24T03:04:33.115Z,33.60
2019-02-24T03:06:59.785Z,33.60
2019-02-24T03:09:26.175Z,33.50
2019-02-24T03:11:52.378Z,33.50
2019-02-24T03:14:18.675Z,33.40
2019-02-24T03:16:45.109Z,33.40
2019-02-24T03:19:11.483Z,33.50
2019-02-24T03:21:37.724Z,33.50
2019-02-24T03:24:03.985Z,33.60
2019-02-24T03:26:30.431Z,33.50
2019-02-24T03:29:03.912Z,33.40
2019-02-24T03:31:23.236Z,33.50
2019-02-24T03:33:49.539Z,33.40
2019-02-24T03:36:15.931Z,33.60
2019-02-24T03:38:42.164Z,33.50
2019-02-24T03:41:08.367Z,33.40
2019-02-24T03:43:34.855Z,33.50
2019-02-24T03:46:01.237Z,33.40
2019-02-24T03:48:27.510Z,33.40
2019-02-24T03:50:53.927Z,33.40
2019-02-24T03:53:20.380Z,33.60
2019-02-24T03:55:46.821Z,33.40
2019-02-24T03:58:13.214Z,33.30
2019-02-24T04:00:41.066Z,33.30
2019-02-24T04:03:07.329Z,33.20
2019-02-24T04:05:33.727Z,33.30
2019-02-24T04:08:00.171Z,33.20
2019-02-24T04:10:26.611Z,33.30
2019-02-24T04:12:53.680Z,33.10
2019-02-24T04:15:20.098Z,33.10
2019-02-24T04:17:46.450Z,33.30
2019-02-24T04:20:12.755Z,33.20
2019-02-24T04:22:38.971Z,33.10
2019-02-24T04:25:06.054Z,33.00
2019-02-24T04:27:32.466Z,33.70
2019-02-24T04:29:58.668Z,33.20
2019-02-24T04:32:24.916Z,33.30
2019-02-24T04:34:51.948Z,33.30
2019-02-24T04:37:18.192Z,33.30
2019-02-24T04:39:44.644Z,33.30
2019-02-24T04:42:11.072Z,33.00
2019-02-24T04:44:37.530Z,33.10
2019-02-24T04:47:03.929Z,33.00
2019-02-24T04:49:30.971Z,33.00
2019-02-24T04:51:57.643Z,32.90
2019-02-24T04:54:23.872Z,33.10
2019-02-24T04:56:50.258Z,33.30
2019-02-24T04:59:16.489Z,33.10
2019-02-24T05:01:42.916Z,33.00
2019-02-24T05:04:09.173Z,32.90
2019-02-24T05:06:35.590Z,32.90
2019-02-24T05:09:01.813Z,33.00
2019-02-24T05:11:28.036Z,32.90
2019-02-24T05:13:54.311Z,33.00
2019-02-24T05:16:20.503Z,33.00
2019-02-24T05:18:46.735Z,32.70
2019-02-24T05:21:13.028Z,32.80
2019-02-24T05:23:39.449Z,32.80
2019-02-24T05:26:05.825Z,32.80
2019-02-24T05:28:32.052Z,32.90
2019-02-24T05:30:58.320Z,32.70
2019-02-24T05:33:24.763Z,32.50
2019-02-24T05:35:51.142Z,32.80
2019-02-24T05:38:17.829Z,32.70
2019-02-24T05:40:44.228Z,32.50
2019-02-24T05:43:10.454Z,32.70
2019-02-24T05:45:36.875Z,32.30
2019-02-24T05:48:04.768Z,32.40
2019-02-24T05:50:30.975Z,32.40
2019-02-24T05:52:57.437Z,32.20
2019-02-24T05:55:23.893Z,32.30
2019-02-24T05:57:50.277Z,32.20
2019-02-24T06:00:16.486Z,32.00
2019-02-24T06:02:42.771Z,32.00
2019-02-24T06:05:09.008Z,32.10
2019-02-24T06:07:35.451Z,32.20
2019-02-24T06:10:01.817Z,32.20
2019-02-24T06:12:28.045Z,32.20
2019-02-24T06:14:54.296Z,32.20
2019-02-24T06:17:20.514Z,32.00
2019-02-24T06:19:46.778Z,31.90
2019-02-24T06:22:13.183Z,32.20
2019-02-24T06:24:40.893Z,31.90
2019-02-24T06:27:07.302Z,31.90
2019-02-24T06:29:33.696Z,32.00
2019-02-24T06:31:59.971Z,31.80
2019-02-24T06:34:26.360Z,31.90
2019-02-24T06:36:52.583Z,31.70
2019-02-24T06:39:18.831Z,31.70
2019-02-24T06:41:45.045Z,31.90
2019-02-24T06:44:12.917Z,32.60
2019-02-24T06:46:40.822Z,31.90
2019-02-24T06:49:07.215Z,31.90
2019-02-24T06:51:35.090Z,31.90
2019-02-24T06:54:01.512Z,31.80
2019-02-24T06:56:29.384Z,31.70
2019-02-24T06:58:57.289Z,31.70
2019-02-24T07:01:23.691Z,31.70
2019-02-24T07:03:51.579Z,31.70
2019-02-24T07:06:18.033Z,31.60
2019-02-24T07:08:44.415Z,31.50
2019-02-24T07:11:10.898Z,31.40
2019-02-24T07:13:37.295Z,31.40
2019-02-24T07:16:03.762Z,31.30
2019-02-24T07:18:29.955Z,31.20
2019-02-24T07:20:56.171Z,31.50
2019-02-24T07:23:22.396Z,30.90
2019-02-24T07:25:50.274Z,30.80
2019-02-24T07:28:16.723Z,30.70
2019-02-24T07:30:43.137Z,30.60
2019-02-24T07:33:09.355Z,30.60
2019-02-24T07:35:35.834Z,30.60
2019-02-24T07:38:02.221Z,30.50
2019-02-24T07:40:28.471Z,30.50
2019-02-24T07:42:54.695Z,30.60
2019-02-24T07:45:21.164Z,30.50
2019-02-24T07:47:47.548Z,30.50
2019-02-24T07:50:15.433Z,30.60
2019-02-24T07:52:41.834Z,30.50
2019-02-24T07:55:08.102Z,30.40
2019-02-24T07:57:34.521Z,30.40
2019-02-24T08:00:00.727Z,30.60
2019-02-24T08:02:26.968Z,30.40
2019-02-24T08:04:53.198Z,30.40
2019-02-24T08:07:19.449Z,30.40
2019-02-24T08:09:45.867Z,30.40
2019-02-24T08:12:12.111Z,30.30
2019-02-24T08:14:38.541Z,30.30
2019-02-24T08:17:04.961Z,30.20
2019-02-24T08:19:31.179Z,30.10
2019-02-24T08:21:57.656Z,30.60
2019-02-24T08:24:25.082Z,30.60
2019-02-24T08:26:51.296Z,30.30
2019-02-24T08:29:17.534Z,30.40
2019-02-24T08:31:44.575Z,30.30
2019-02-24T08:34:10.794Z,30.30
2019-02-24T08:36:37.046Z,30.40
2019-02-24T08:39:03.250Z,30.60
2019-02-24T08:41:29.534Z,31.00
2019-02-24T08:43:55.915Z,30.40
2019-02-24T08:46:22.155Z,30.20
2019-02-24T08:48:48.374Z,30.00
2019-02-24T08:51:14.650Z,30.30
2019-02-24T08:53:41.288Z,30.40
2019-02-24T08:56:07.931Z,30.40
2019-02-24T08:58:34.340Z,30.30
2019-02-24T09:01:00.550Z,30.10
2019-02-24T09:03:28.457Z,30.30
2019-02-24T09:05:54.837Z,30.30
2019-02-24T09:08:21.069Z,30.60
2019-02-24T09:10:47.296Z,30.50
2019-02-24T09:13:13.566Z,30.30
2019-02-24T09:15:40.007Z,30.40
2019-02-24T09:18:06.438Z,30.10
2019-02-24T09:20:33.076Z,30.30
2019-02-24T09:22:59.488Z,30.20
2019-02-24T09:25:25.910Z,30.20
2019-02-24T09:27:52.147Z,30.20
2019-02-24T09:30:18.592Z,30.30
2019-02-24T09:32:45.006Z,30.10
2019-02-24T09:35:11.243Z,30.10
2019-02-24T09:37:37.459Z,30.20
2019-02-24T09:40:05.339Z,30.20
2019-02-24T09:42:31.801Z,30.20
2019-02-24T09:44:58.218Z,30.10
2019-02-24T09:47:24.622Z,30.00
2019-02-24T09:49:51.304Z,30.20
2019-02-24T09:52:17.718Z,30.00
2019-02-24T09:54:44.134Z,30.40
2019-02-24T09:57:10.350Z,30.10
2019-02-24T09:59:36.612Z,30.10
2019-02-24T10:02:03.023Z,30.10
2019-02-24T10:04:29.308Z,30.00
2019-02-24T10:06:55.718Z,30.10
2019-02-24T10:09:22.142Z,30.00
2019-02-24T10:11:48.633Z,30.10
2019-02-24T10:14:15.003Z,29.90
2019-02-24T10:16:41.425Z,30.20
2019-02-24T10:19:07.828Z,30.00
2019-02-24T10:21:34.086Z,30.00
2019-02-24T10:24:00.512Z,30.00
2019-02-24T10:26:26.778Z,30.00
2019-02-24T10:28:53.159Z,29.90
2019-02-24T10:31:20.060Z,30.00
2019-02-24T10:33:46.480Z,29.90
2019-02-24T10:36:12.868Z,29.90
2019-02-24T10:38:39.150Z,30.10
2019-02-24T10:41:05.532Z,30.00
2019-02-24T10:43:31.774Z,30.20
2019-02-24T10:45:58.023Z,29.80
2019-02-24T10:48:24.435Z,30.00
2019-02-24T10:50:50.899Z,30.00
2019-02-24T10:53:17.341Z,29.90
2019-02-24T10:55:43.755Z,29.90
2019-02-24T10:58:09.958Z,30.00
2019-02-24T11:00:36.237Z,29.90
2019-02-24T11:03:02.870Z,30.00
2019-02-24T11:05:29.267Z,29.90
2019-02-24T11:07:55.488Z,30.00
2019-02-24T11:10:22.484Z,30.50
2019-02-24T11:12:49.833Z,29.90
2019-02-24T11:15:16.266Z,30.10
2019-02-24T11:17:42.669Z,30.00
2019-02-24T11:20:09.715Z,29.80
2019-02-24T11:22:35.944Z,29.80
2019-02-24T11:25:02.176Z,30.00
2019-02-24T11:27:28.459Z,30.00
2019-02-24T11:29:54.875Z,30.40
2019-02-24T11:32:21.246Z,29.90
2019-02-24T11:34:47.483Z,29.90
2019-02-24T11:37:15.354Z,29.70
2019-02-24T11:39:41.591Z,29.70
2019-02-24T11:42:07.814Z,29.80
2019-02-24T11:44:35.675Z,29.90
2019-02-24T11:47:01.884Z,29.80
2019-02-24T11:49:28.155Z,30.00
2019-02-24T11:52:03.485Z,29.70
2019-02-24T11:54:21.031Z,30.00
2019-02-24T11:56:47.890Z,29.80
2019-02-24T11:59:15.540Z,29.90
2019-02-24T12:01:47.546Z,29.90
2019-02-24T12:04:08.589Z,29.80
2019-02-24T12:06:35.019Z,29.90
2019-02-24T12:09:05.280Z,29.70
2019-02-24T12:11:27.684Z,29.70
2019-02-24T12:13:54.147Z,29.80
2019-02-24T12:16:20.582Z,29.90
2019-02-24T12:18:47.219Z,29.60
2019-02-24T12:21:14.066Z,29.80
2019-02-24T12:23:40.725Z,29.80
2019-02-24T12:26:07.112Z,29.70
2019-02-24T12:28:33.546Z,29.60
2019-02-24T12:31:00.016Z,29.70
2019-02-24T12:33:26.447Z,29.70
2019-02-24T12:35:52.884Z,29.80
2019-02-24T12:38:19.271Z,29.70
2019-02-24T12:40:45.694Z,29.80
2019-02-24T12:43:13.572Z,29.70
2019-02-24T12:45:39.855Z,29.70
2019-02-24T12:48:06.248Z,29.70
2019-02-24T12:50:32.901Z,29.80
2019-02-24T12:52:59.344Z,29.80
2019-02-24T12:55:25.573Z,30.20
2019-02-24T12:57:52.016Z,29.70
2019-02-24T13:00:18.396Z,29.60
2019-02-24T13:02:44.630Z,29.70
2019-02-24T13:05:10.853Z,29.60
2019-02-24T13:07:37.119Z,29.70
2019-02-24T13:10:03.331Z,29.70
2019-02-24T13:12:29.771Z,29.70
2019-02-24T13:14:56.174Z,29.60
2019-02-24T13:17:22.448Z,29.70
2019-02-24T13:19:49.095Z,29.60
2019-02-24T13:22:15.323Z,29.60
2019-02-24T13:24:41.724Z,29.70
2019-02-24T13:27:08.167Z,29.70
2019-02-24T13:29:34.563Z,29.60
2019-02-24T13:32:01.037Z,29.60
2019-02-24T13:34:27.435Z,29.60
2019-02-24T13:36:53.682Z,29.80
2019-02-24T13:39:20.123Z,29.60
2019-02-24T13:41:46.540Z,30.00
2019-02-24T13:44:13.011Z,29.60
2019-02-24T13:46:39.392Z,29.60
2019-02-24T13:49:05.673Z,29.50
2019-02-24T13:51:32.069Z,29.60
2019-02-24T13:53:59.946Z,29.70
2019-02-24T13:56:26.415Z,29.70
2019-02-24T13:58:53.040Z,29.50
2019-02-24T14:01:19.433Z,29.50
2019-02-24T14:03:45.911Z,29.40
2019-02-24T14:06:12.319Z,29.60
2019-02-24T14:08:38.726Z,29.60
2019-02-24T14:11:05.027Z,29.50
2019-02-24T14:13:31.431Z,29.40
2019-02-24T14:15:57.884Z,29.60
2019-02-24T14:18:24.502Z,29.50
2019-02-24T14:20:50.917Z,29.30
2019-02-24T14:23:17.150Z,29.40
2019-02-24T14:25:43.567Z,29.50
2019-02-24T14:28:11.466Z,29.40
2019-02-24T14:30:37.888Z,29.40
2019-02-24T14:33:04.536Z,29.40
2019-02-24T14:35:30.970Z,29.40
2019-02-24T14:37:57.609Z,29.10
2019-02-24T14:40:24.024Z,29.20
2019-02-24T14:42:50.440Z,29.10
2019-02-24T14:45:16.911Z,29.30
2019-02-24T14:47:43.364Z,29.20
2019-02-24T14:50:09.761Z,29.30
2019-02-24T14:52:36.224Z,29.00
2019-02-24T14:55:02.878Z,28.90
2019-02-24T14:57:29.066Z,28.80
2019-02-24T14:59:56.040Z,28.80
2019-02-24T15:02:22.369Z,28.80
2019-02-24T15:04:48.750Z,29.10
2019-02-24T15:07:16.873Z,28.90
2019-02-24T15:09:43.256Z,28.90
2019-02-24T15:12:09.498Z,28.90
2019-02-24T15:14:35.732Z,29.00
2019-02-24T15:17:02.212Z,29.00
2019-02-24T15:19:28.615Z,28.90
2019-02-24T15:21:55.024Z,28.80
2019-02-24T15:24:21.271Z,28.80
2019-02-24T15:26:47.701Z,29.00
2019-02-24T15:29:14.108Z,29.00
2019-02-24T15:31:40.789Z,28.90
2019-02-24T15:34:07.432Z,28.60
2019-02-24T15:36:34.059Z,29.00
2019-02-24T15:39:00.471Z,28.90
2019-02-24T15:41:29.752Z,28.90
2019-02-24T15:43:53.371Z,28.90
2019-02-24T15:46:20.019Z,29.00
2019-02-24T15:48:46.391Z,29.00
2019-02-24T15:51:12.843Z,28.80
2019-02-24T15:53:39.084Z,29.10
2019-02-24T15:56:05.483Z,28.90
2019-02-24T15:58:31.710Z,29.00
2019-02-24T16:00:57.936Z,28.90
2019-02-24T16:03:24.200Z,28.90
2019-02-24T16:05:50.668Z,28.90
2019-02-24T16:08:17.295Z,29.00
2019-02-24T16:10:43.671Z,28.90
2019-02-24T16:13:16.738Z,29.10
2019-02-24T16:15:36.593Z,28.90
2019-02-24T16:18:03.035Z,29.00
2019-02-24T16:20:29.424Z,28.90
2019-02-24T16:22:55.905Z,29.00
2019-02-24T16:25:22.297Z,29.00
2019-02-24T16:27:48.728Z,29.10
2019-02-24T16:30:14.943Z,29.00
2019-02-24T16:32:41.400Z,29.00
2019-02-24T16:35:07.812Z,29.00
2019-02-24T16:37:34.031Z,29.10
2019-02-24T16:40:01.944Z,29.00
2019-02-24T16:42:28.375Z,29.00
2019-02-24T16:44:54.764Z,28.90
2019-02-24T16:47:20.983Z,29.00
2019-02-24T16:49:47.472Z,29.10
2019-02-24T16:52:14.298Z,28.90
2019-02-24T16:54:41.487Z,28.90
2019-02-24T16:57:07.995Z,29.00
2019-02-24T16:59:34.242Z,29.00
2019-02-24T17:02:00.867Z,28.90
2019-02-24T17:04:27.291Z,29.00
2019-02-24T17:06:53.957Z,29.00
2019-02-24T17:09:20.576Z,28.90
2019-02-24T17:11:47.215Z,28.80
2019-02-24T17:14:13.646Z,28.90
2019-02-24T17:16:39.859Z,29.00
2019-02-24T17:19:06.316Z,28.90
2019-02-24T17:21:32.738Z,28.80
2019-02-24T17:23:59.396Z,28.80
2019-02-24T17:26:25.827Z,28.70
2019-02-24T17:28:52.632Z,29.00
2019-02-24T17:31:27.840Z,28.80
2019-02-24T17:33:46.910Z,28.90
2019-02-24T17:38:45.050Z,28.70
2019-02-24T17:41:11.690Z,28.70
2019-02-24T17:43:38.141Z,28.80
2019-02-24T17:46:04.797Z,29.00
2019-02-24T17:48:31.603Z,28.80
2019-02-24T17:50:58.097Z,28.90
2019-02-24T17:53:24.485Z,29.00
2019-02-24T17:55:50.971Z,29.00
2019-02-24T17:58:18.351Z,28.90
2019-02-24T18:00:46.466Z,28.90
2019-02-24T18:03:13.070Z,28.90
2019-02-24T18:05:39.557Z,29.30
2019-02-24T18:08:05.929Z,29.20
2019-02-24T18:10:32.787Z,29.20
2019-02-24T18:12:59.251Z,29.20
2019-02-24T18:15:25.659Z,29.10
2019-02-24T18:17:52.139Z,29.10
2019-02-24T18:20:18.519Z,29.40
2019-02-24T18:22:45.357Z,29.40
2019-02-24T18:25:11.788Z,29.20
2019-02-24T18:27:38.031Z,28.90
2019-02-24T18:30:04.443Z,29.20
2019-02-24T18:32:32.184Z,29.30
2019-02-24T18:34:57.939Z,29.20
2019-02-24T18:37:24.370Z,29.20
2019-02-24T18:39:51.006Z,29.20
2019-02-24T18:42:17.644Z,29.10
2019-02-24T18:44:44.069Z,29.00
2019-02-24T18:47:10.717Z,29.00
2019-02-24T18:49:37.125Z,29.10
2019-02-24T18:52:03.385Z,29.10
2019-02-24T18:54:34.670Z,29.10
2019-02-24T18:56:56.059Z,29.10
2019-02-24T18:59:22.680Z,29.10
2019-02-24T19:01:49.112Z,29.00
2019-02-24T19:04:15.503Z,29.00
2019-02-24T19:06:43.617Z,29.00
2019-02-24T19:09:10.066Z,29.00
2019-02-24T19:11:37.114Z,29.00
2019-02-24T19:14:03.521Z,29.00
2019-02-24T19:16:30.001Z,29.00
2019-02-24T19:18:56.399Z,29.00
2019-02-24T19:21:22.827Z,28.90
2019-02-24T19:23:49.232Z,28.90
2019-02-24T19:26:15.699Z,29.00
2019-02-24T19:28:42.099Z,28.90
2019-02-24T19:31:08.565Z,28.90
2019-02-24T19:33:34.998Z,28.90
2019-02-24T19:36:01.837Z,28.90
2019-02-24T19:38:28.239Z,28.80
2019-02-24T19:40:55.279Z,28.90
2019-02-24T19:43:21.559Z,28.80
2019-02-24T19:45:47.786Z,28.80
2019-02-24T19:48:14.422Z,28.80
2019-02-24T19:50:40.803Z,28.80
2019-02-24T19:53:07.081Z,28.80
2019-02-24T19:55:33.497Z,28.80
2019-02-24T19:57:59.707Z,28.80
2019-02-24T20:00:25.970Z,28.80
2019-02-24T20:02:52.386Z,28.70
2019-02-24T20:05:18.807Z,28.70
2019-02-24T20:07:45.479Z,28.60
2019-02-24T20:10:11.895Z,28.60
2019-02-24T20:12:38.321Z,28.60
2019-02-24T20:15:04.763Z,28.60
2019-02-24T20:17:31.192Z,28.60
2019-02-24T20:19:57.655Z,28.60
2019-02-24T20:22:24.036Z,28.60
2019-02-24T20:24:50.511Z,28.50
2019-02-24T20:27:16.746Z,28.50
2019-02-24T20:29:42.943Z,28.50
2019-02-24T20:32:09.371Z,28.40
2019-02-24T20:34:35.842Z,28.50
2019-02-24T20:37:02.231Z,28.40
2019-02-24T20:39:28.701Z,28.40
2019-02-24T20:41:55.115Z,28.40
2019-02-24T20:44:21.535Z,28.40
2019-02-24T20:46:48.001Z,28.40
2019-02-24T20:49:14.404Z,28.30
2019-02-24T20:51:42.505Z,28.30
2019-02-24T20:54:08.883Z,28.30
2019-02-24T20:56:35.139Z,28.30
2019-02-24T20:59:02.205Z,28.30
2019-02-24T21:01:28.628Z,28.30
2019-02-24T21:03:55.120Z,28.30
2019-02-24T21:06:21.514Z,28.20
2019-02-24T21:08:47.906Z,28.30
2019-02-24T21:11:14.183Z,28.30
2019-02-24T21:13:40.576Z,28.20
2019-02-24T21:16:07.667Z,28.30
2019-02-24T21:18:34.077Z,28.20
2019-02-24T21:21:00.282Z,28.20
2019-02-24T21:23:26.800Z,28.20
2019-02-24T21:25:53.189Z,28.20
2019-02-24T21:28:19.595Z,28.10
2019-02-24T21:30:46.051Z,28.20
2019-02-24T21:33:12.446Z,28.10
2019-02-24T21:35:38.699Z,28.10
2019-02-24T21:38:05.134Z,28.00
2019-02-24T21:40:32.422Z,28.00
2019-02-24T21:42:58.788Z,28.00
2019-02-24T21:45:26.055Z,28.00
2019-02-24T21:47:52.309Z,28.00
2019-02-24T21:50:18.739Z,28.00
2019-02-24T21:52:45.177Z,28.00
2019-02-24T21:55:11.802Z,27.90
2019-02-24T21:57:38.223Z,27.90
2019-02-24T22:00:04.705Z,27.90
2019-02-24T22:02:31.083Z,27.90
2019-02-24T22:04:57.520Z,27.90
2019-02-24T22:07:23.768Z,27.90
2019-02-24T22:09:50.154Z,27.90
2019-02-24T22:12:16.440Z,27.80
2019-02-24T22:14:42.846Z,27.90
2019-02-24T22:17:09.088Z,27.90
2019-02-24T22:19:35.307Z,27.90
2019-02-24T22:22:02.352Z,27.90
2019-02-24T22:24:30.659Z,27.90
2019-02-24T22:26:57.076Z,27.90
2019-02-24T22:29:23.285Z,27.90
2019-02-24T22:31:50.338Z,27.90
2019-02-24T22:34:16.776Z,27.90
2019-02-24T22:36:43.441Z,27.90
2019-02-24T22:39:10.091Z,27.90
2019-02-24T22:41:36.512Z,27.90
2019-02-24T22:44:02.926Z,27.90
2019-02-24T22:46:29.524Z,27.90
2019-02-24T22:48:55.809Z,27.90
2019-02-24T22:51:22.244Z,27.90
2019-02-24T22:53:48.634Z,27.90
2019-02-24T22:56:14.867Z,27.90
2019-02-24T22:58:41.094Z,27.90
2019-02-24T23:01:07.364Z,27.90
2019-02-24T23:03:33.775Z,27.90
2019-02-24T23:06:00.232Z,27.90
2019-02-24T23:08:26.639Z,27.80
2019-02-24T23:10:52.844Z,27.80
2019-02-24T23:13:19.133Z,27.90
2019-02-24T23:15:45.539Z,27.80
2019-02-24T23:18:11.931Z,27.80
2019-02-24T23:20:38.218Z,27.80
2019-02-24T23:23:04.622Z,27.80
2019-02-24T23:25:31.047Z,27.80
2019-02-24T23:27:57.499Z,27.90
2019-02-24T23:30:23.920Z,27.90
2019-02-24T23:32:50.149Z,27.90
2019-02-24T23:35:16.580Z,27.90
2019-02-24T23:37:42.819Z,27.80
2019-02-24T23:40:09.280Z,27.90
2019-02-24T23:42:35.686Z,27.90
2019-02-24T23:45:09.835Z,27.80
2019-02-24T23:47:28.543Z,27.80
2019-02-24T23:49:54.764Z,27.70
2019-02-24T23:52:20.986Z,27.80
2019-02-24T23:54:47.520Z,27.70
2019-02-24T23:57:13.897Z,27.70
2019-02-24T23:59:40.328Z,27.80
